Weather at Hells Gate Airport

Public forecast

Using degrees Celsius for public forecast. Weather courtesy of forecast.io.

Closest aviation weather report (METAR) to Hells Gate Airport

Closest report is Cairns International Airport, 426.2 nm (789.3 km) E.

2024/04/22 06:00 (retrieved 38 minutes ago)

YBCS 220600Z AUTO 13015KT 9999 // BKN068 27/19 Q1011 RF000/0000

Closest aviation forecast (TAF) to Hells Gate Airport

Closest forecast is Cairns International Airport, 426.2 nm (789.3 km) E.

2024/04/22 06:51 (retrieved 0 seconds ago)

TAF YBCS 220525Z 2206/2306 13014KT 9999 FEW035 FM220900 18008KT 9999 SCT020 FM221500 16008KT 9999 -SHRA SCT020 FM230000 13014KT 9999 -SHRA SCT025